createdAt,value
2018-04-13T00:01:00.029Z,980.67
2018-04-13T00:02:00.067Z,980.69
2018-04-13T00:03:00.105Z,980.68
2018-04-13T00:04:00.142Z,980.69
2018-04-13T00:05:00.231Z,980.71
2018-04-13T00:06:00.225Z,980.72
2018-04-13T00:07:00.255Z,980.74
2018-04-13T00:08:00.301Z,980.74
2018-04-13T00:09:00.335Z,980.79
2018-04-13T00:10:00.367Z,980.79
2018-04-13T00:11:00.413Z,980.76
2018-04-13T00:12:00.443Z,980.74
2018-04-13T00:13:00.480Z,980.72
2018-04-13T00:14:00.523Z,980.73
2018-04-13T00:15:00.555Z,980.72
2018-04-13T00:16:00.594Z,980.74
2018-04-13T00:17:00.630Z,980.73
2018-04-13T00:18:00.669Z,980.72
2018-04-13T00:19:00.706Z,980.70
2018-04-13T00:20:00.744Z,980.72
2018-04-13T00:21:00.790Z,980.72
2018-04-13T00:22:00.822Z,980.67
2018-04-13T00:23:00.861Z,980.69
2018-04-13T00:24:00.901Z,980.67
2018-04-13T00:25:00.933Z,980.67
2018-04-13T00:26:00.972Z,980.64
2018-04-13T00:27:01.008Z,980.63
2018-04-13T00:28:01.045Z,980.68
2018-04-13T00:29:01.086Z,980.68
2018-04-13T00:30:01.121Z,980.64
2018-04-13T00:31:01.159Z,980.66
2018-04-13T00:32:01.212Z,980.68
2018-04-13T00:33:01.234Z,980.69
2018-04-13T00:34:01.269Z,980.71
2018-04-13T00:35:01.308Z,980.71
2018-04-13T00:36:01.346Z,980.72
2018-04-13T00:37:01.384Z,980.72
2018-04-13T00:38:01.420Z,980.74
2018-04-13T00:39:01.460Z,980.76
2018-04-13T00:40:01.498Z,980.74
2018-04-13T00:41:01.535Z,980.73
2018-04-13T00:42:01.570Z,980.72
2018-04-13T00:43:01.606Z,980.76
2018-04-13T00:44:01.653Z,980.71
2018-04-13T00:45:01.683Z,980.72
2018-04-13T00:46:01.721Z,980.75
2018-04-13T00:47:01.757Z,980.72
2018-04-13T00:48:01.800Z,980.72
2018-04-13T00:49:01.833Z,980.74
2018-04-13T00:50:01.871Z,980.76
2018-04-13T00:51:01.907Z,980.72
2018-04-13T00:52:01.950Z,980.71
2018-04-13T00:53:01.985Z,980.73
2018-04-13T00:54:02.022Z,980.76
2018-04-13T00:55:02.064Z,980.73
2018-04-13T00:56:02.096Z,980.72
2018-04-13T00:57:02.132Z,980.74
2018-04-13T00:58:02.169Z,980.74
2018-04-13T00:59:02.215Z,980.70
2018-04-13T01:00:02.255Z,980.70
2018-04-13T01:01:02.282Z,980.75
2018-04-13T01:02:02.321Z,980.75
2018-04-13T01:03:02.356Z,980.76
2018-04-13T01:04:02.395Z,980.72
2018-04-13T01:05:02.432Z,980.74
2018-04-13T01:06:02.468Z,980.71
2018-04-13T01:07:02.507Z,980.71
2018-04-13T01:08:02.543Z,980.69
2018-04-13T01:09:02.581Z,980.68
2018-04-13T01:10:02.618Z,980.71
2018-04-13T01:11:02.655Z,980.70
2018-04-13T01:12:02.693Z,980.71
2018-04-13T01:13:02.737Z,980.71
2018-04-13T01:14:02.769Z,980.73
2018-04-13T01:15:02.805Z,980.70
2018-04-13T01:16:02.843Z,980.74
2018-04-13T01:17:02.881Z,980.75
2018-04-13T01:18:02.917Z,980.78
2018-04-13T01:19:02.954Z,980.78
2018-04-13T01:20:02.992Z,980.78
2018-04-13T01:21:03.031Z,980.81
2018-04-13T01:22:03.075Z,980.85
2018-04-13T01:23:03.109Z,980.83
2018-04-13T01:24:03.143Z,980.81
2018-04-13T01:25:03.188Z,980.82
2018-04-13T01:26:03.217Z,980.82
2018-04-13T01:27:03.263Z,980.82
2018-04-13T01:28:03.292Z,980.79
2018-04-13T01:29:03.331Z,980.78
2018-04-13T01:30:03.374Z,980.78
2018-04-13T01:31:03.409Z,980.76
2018-04-13T01:32:03.443Z,980.77
2018-04-13T01:33:03.481Z,980.79
2018-04-13T01:34:03.518Z,980.79
2018-04-13T01:35:03.564Z,980.78
2018-04-13T01:36:03.593Z,980.80
2018-04-13T01:37:03.631Z,980.77
2018-04-13T01:38:03.669Z,980.80
2018-04-13T01:39:03.707Z,980.81
2018-04-13T01:40:03.751Z,980.81
2018-04-13T01:41:03.789Z,980.79
2018-04-13T01:42:03.818Z,980.79
2018-04-13T01:43:03.855Z,980.80
2018-04-13T01:44:03.913Z,980.77
2018-04-13T01:45:03.930Z,980.76
2018-04-13T01:46:03.968Z,980.72
2018-04-13T01:47:04.007Z,980.66
2018-04-13T01:48:04.043Z,980.63
2018-04-13T01:49:04.080Z,980.61
2018-04-13T01:50:04.117Z,980.59
2018-04-13T01:51:04.155Z,980.62
2018-04-13T01:52:04.192Z,980.61
2018-04-13T01:53:04.233Z,980.66
2018-04-13T01:54:04.276Z,980.65
2018-04-13T01:55:04.312Z,980.66
2018-04-13T01:56:04.342Z,980.66
2018-04-13T01:57:04.381Z,980.69
2018-04-13T01:58:04.417Z,980.69
2018-04-13T01:59:04.456Z,980.69
2018-04-13T02:00:04.493Z,980.68
2018-04-13T02:01:04.531Z,980.67
2018-04-13T02:02:04.568Z,980.64
2018-04-13T02:03:04.605Z,980.60
2018-04-13T02:04:04.646Z,980.58
2018-04-13T02:05:04.681Z,980.51
2018-04-13T02:06:04.723Z,980.50
2018-04-13T02:07:04.756Z,980.48
2018-04-13T02:08:04.794Z,980.42
2018-04-13T02:09:04.833Z,980.38
2018-04-13T02:10:04.867Z,980.40
2018-04-13T02:11:04.906Z,980.42
2018-04-13T02:12:04.941Z,980.46
2018-04-13T02:13:04.981Z,980.46
2018-04-13T02:14:05.017Z,980.47
2018-04-13T02:15:05.052Z,980.47
2018-04-13T02:16:05.092Z,980.49
2018-04-13T02:17:05.127Z,980.48
2018-04-13T02:18:05.164Z,980.48
2018-04-13T02:19:05.210Z,980.48
2018-04-13T02:20:05.248Z,980.48
2018-04-13T02:21:05.277Z,980.46
2018-04-13T02:22:05.316Z,980.51
2018-04-13T02:23:05.352Z,980.48
2018-04-13T02:24:05.391Z,980.48
2018-04-13T02:25:05.426Z,980.50
2018-04-13T02:26:05.465Z,980.50
2018-04-13T02:27:05.503Z,980.47
2018-04-13T02:28:05.540Z,980.52
2018-04-13T02:29:05.576Z,980.48
2018-04-13T02:30:05.613Z,980.51
2018-04-13T02:31:05.652Z,980.51
2018-04-13T02:32:05.694Z,980.51
2018-04-13T02:33:05.725Z,980.48
2018-04-13T02:34:05.771Z,980.46
2018-04-13T02:35:05.806Z,980.43
2018-04-13T02:36:05.843Z,980.44
2018-04-13T02:37:05.878Z,980.42
2018-04-13T02:38:05.912Z,980.43
2018-04-13T02:39:05.957Z,980.44
2018-04-13T02:40:05.987Z,980.43
2018-04-13T02:41:06.025Z,980.44
2018-04-13T02:42:06.066Z,980.41
2018-04-13T02:43:06.100Z,980.43
2018-04-13T02:44:06.136Z,980.47
2018-04-13T02:45:06.173Z,980.48
2018-04-13T02:46:06.211Z,980.54
2018-04-13T02:47:06.247Z,980.57
2018-04-13T02:48:06.296Z,980.61
2018-04-13T02:49:06.324Z,980.62
2018-04-13T02:50:06.358Z,980.64
2018-04-13T02:51:06.396Z,980.64
2018-04-13T02:52:06.433Z,980.64
2018-04-13T02:53:06.469Z,980.62
2018-04-13T02:54:06.513Z,980.65
2018-04-13T02:55:06.544Z,980.62
2018-04-13T02:56:06.581Z,980.61
2018-04-13T02:57:06.617Z,980.68
2018-04-13T02:58:06.655Z,980.63
2018-04-13T02:59:06.692Z,980.65
2018-04-13T03:00:06.736Z,980.68
2018-04-13T03:01:06.767Z,980.68
2018-04-13T03:02:06.804Z,980.68
2018-04-13T03:03:06.840Z,980.70
2018-04-13T03:04:06.876Z,980.73
2018-04-13T03:05:06.913Z,980.70
2018-04-13T03:06:06.951Z,980.70
2018-04-13T03:07:06.987Z,980.68
2018-04-13T03:08:07.024Z,980.69
2018-04-13T03:09:07.062Z,980.68
2018-04-13T03:10:07.101Z,980.67
2018-04-13T03:11:07.137Z,980.64
2018-04-13T03:12:07.176Z,980.66
2018-04-13T03:13:07.213Z,980.66
2018-04-13T03:14:07.247Z,980.59
2018-04-13T03:15:07.284Z,980.58
2018-04-13T03:16:07.322Z,980.56
2018-04-13T03:17:07.358Z,980.56
2018-04-13T03:18:07.400Z,980.55
2018-04-13T03:19:07.433Z,980.52
2018-04-13T03:20:07.469Z,980.52
2018-04-13T03:21:07.505Z,980.56
2018-04-13T03:22:07.542Z,980.61
2018-04-13T03:23:07.580Z,980.61
2018-04-13T03:24:07.615Z,980.63
2018-04-13T03:25:07.652Z,980.63
2018-04-13T03:26:07.691Z,980.64
2018-04-13T03:27:07.728Z,980.67
2018-04-13T03:28:07.763Z,980.70
2018-04-13T03:29:07.803Z,980.68
2018-04-13T03:30:07.837Z,980.66
2018-04-13T03:31:07.873Z,980.67
2018-04-13T03:32:07.909Z,980.68
2018-04-13T03:33:07.954Z,980.65
2018-04-13T03:34:07.984Z,980.62
2018-04-13T03:35:08.020Z,980.66
2018-04-13T03:36:08.057Z,980.62
2018-04-13T03:37:08.094Z,980.61
2018-04-13T03:38:08.130Z,980.65
2018-04-13T03:39:08.166Z,980.62
2018-04-13T03:40:08.203Z,980.66
2018-04-13T03:41:08.246Z,980.65
2018-04-13T03:42:08.276Z,980.66
2018-04-13T03:43:08.315Z,980.67
2018-04-13T03:44:08.350Z,980.69
2018-04-13T03:45:08.386Z,980.69
2018-04-13T03:46:08.423Z,980.71
2018-04-13T03:47:08.501Z,980.71
2018-04-13T03:48:08.495Z,980.70
2018-04-13T03:49:08.533Z,980.68
2018-04-13T03:50:08.572Z,980.69
2018-04-13T03:51:08.615Z,980.71
2018-04-13T03:52:08.641Z,980.72
2018-04-13T03:53:08.681Z,980.78
2018-04-13T03:54:08.716Z,980.79
2018-04-13T03:55:08.752Z,980.78
2018-04-13T03:56:08.787Z,980.80
2018-04-13T03:57:08.824Z,980.78
2018-04-13T03:58:08.861Z,980.80
2018-04-13T03:59:08.898Z,980.81
2018-04-13T04:00:08.935Z,980.89
2018-04-13T04:01:08.970Z,980.89
2018-04-13T04:02:09.064Z,980.83
2018-04-13T04:03:09.042Z,980.88
2018-04-13T04:04:09.079Z,980.84
2018-04-13T04:05:09.117Z,980.83
2018-04-13T04:06:09.153Z,980.86
2018-04-13T04:07:09.188Z,980.86
2018-04-13T04:08:09.224Z,980.86
2018-04-13T04:09:09.262Z,980.92
2018-04-13T04:10:09.297Z,980.91
2018-04-13T04:11:09.334Z,980.93
2018-04-13T04:12:09.370Z,981.01
2018-04-13T04:13:09.405Z,981.00
2018-04-13T04:14:09.443Z,981.00
2018-04-13T04:15:09.480Z,981.06
2018-04-13T04:16:09.517Z,981.07
2018-04-13T04:17:09.551Z,981.13
2018-04-13T04:18:09.587Z,981.16
2018-04-13T04:19:09.623Z,981.20
2018-04-13T04:20:09.658Z,981.23
2018-04-13T04:21:09.695Z,981.29
2018-04-13T04:22:09.731Z,981.29
2018-04-13T04:23:09.768Z,981.37
2018-04-13T04:24:09.820Z,981.35
2018-04-13T04:25:09.839Z,981.41
2018-04-13T04:26:09.874Z,981.38
2018-04-13T04:27:09.919Z,981.41
2018-04-13T04:28:09.947Z,981.45
2018-04-13T04:29:09.988Z,981.42
2018-04-13T04:30:10.031Z,981.41
2018-04-13T04:31:10.057Z,981.37
2018-04-13T04:32:10.093Z,981.37
2018-04-13T04:33:10.136Z,981.35
2018-04-13T04:34:10.165Z,981.33
2018-04-13T04:35:10.206Z,981.30
2018-04-13T04:36:10.250Z,981.21
2018-04-13T04:37:10.275Z,981.19
2018-04-13T04:38:10.310Z,981.09
2018-04-13T04:39:10.355Z,981.05
2018-04-13T04:40:10.383Z,981.02
2018-04-13T04:41:10.420Z,981.01
2018-04-13T04:42:10.457Z,981.03
2018-04-13T04:43:10.495Z,981.06
2018-04-13T04:44:10.529Z,981.05
2018-04-13T04:45:10.564Z,981.09
2018-04-13T04:46:10.603Z,981.12
2018-04-13T04:47:10.640Z,981.09
2018-04-13T04:48:10.680Z,981.10
2018-04-13T04:49:10.712Z,981.11
2018-04-13T04:50:10.748Z,981.13
2018-04-13T04:51:10.786Z,981.12
2018-04-13T04:52:10.823Z,981.15
2018-04-13T04:53:10.860Z,981.19
2018-04-13T04:54:10.896Z,981.22
2018-04-13T04:55:10.932Z,981.28
2018-04-13T04:56:10.969Z,981.32
2018-04-13T04:57:11.006Z,981.33
2018-04-13T04:58:11.041Z,981.39
2018-04-13T04:59:11.079Z,981.44
2018-04-13T05:00:11.114Z,981.49
2018-04-13T05:01:11.149Z,981.53
2018-04-13T05:02:11.187Z,981.56
2018-04-13T05:03:11.433Z,981.56
2018-04-13T05:04:11.266Z,981.59
2018-04-13T05:05:11.296Z,981.57
2018-04-13T05:06:11.340Z,981.63
2018-04-13T05:07:11.369Z,981.64
2018-04-13T05:08:11.405Z,981.60
2018-04-13T05:09:11.446Z,981.65
2018-04-13T05:10:11.479Z,981.65
2018-04-13T05:11:11.516Z,981.65
2018-04-13T05:12:11.551Z,981.65
2018-04-13T05:13:11.591Z,981.64
2018-04-13T05:14:11.629Z,981.66
2018-04-13T05:15:11.662Z,981.67
2018-04-13T05:16:11.698Z,981.68
2018-04-13T05:17:11.746Z,981.71
2018-04-13T05:18:11.771Z,981.72
2018-04-13T05:19:11.809Z,981.72
2018-04-13T05:20:11.846Z,981.77
2018-04-13T05:21:11.883Z,981.77
2018-04-13T05:22:11.919Z,981.76
2018-04-13T05:23:11.954Z,981.77
2018-04-13T05:24:11.989Z,981.84
2018-04-13T05:25:12.028Z,981.82
2018-04-13T05:26:12.064Z,981.84
2018-04-13T05:27:12.103Z,981.83
2018-04-13T05:28:12.137Z,981.84
2018-04-13T05:29:12.176Z,981.86
2018-04-13T05:30:12.216Z,981.85
2018-04-13T05:31:12.249Z,981.88
2018-04-13T05:32:12.334Z,981.85
2018-04-13T05:33:12.321Z,981.85
2018-04-13T05:34:12.357Z,981.85
2018-04-13T05:35:12.427Z,981.82
2018-04-13T05:36:12.435Z,981.86
2018-04-13T05:37:12.471Z,981.91
2018-04-13T05:38:12.505Z,981.92
2018-04-13T05:39:12.543Z,981.94
2018-04-13T05:40:12.579Z,981.96
2018-04-13T05:41:12.615Z,981.94
2018-04-13T05:42:12.653Z,981.90
2018-04-13T05:43:12.689Z,981.90
2018-04-13T05:44:12.725Z,981.89
2018-04-13T05:45:12.761Z,981.93
2018-04-13T05:46:12.802Z,981.93
2018-04-13T05:47:12.835Z,981.94
2018-04-13T05:48:12.873Z,981.93
2018-04-13T05:49:12.916Z,981.92
2018-04-13T05:50:12.946Z,981.93
2018-04-13T05:51:12.984Z,981.95
2018-04-13T05:52:13.021Z,981.91
2018-04-13T05:53:13.061Z,981.93
2018-04-13T05:54:13.095Z,981.93
2018-04-13T05:55:13.133Z,981.93
2018-04-13T05:56:13.171Z,981.93
2018-04-13T05:57:13.206Z,981.91
2018-04-13T05:58:13.244Z,981.92
2018-04-13T05:59:13.281Z,981.90
2018-04-13T06:00:13.331Z,981.89
2018-04-13T06:01:13.354Z,981.89
2018-04-13T06:02:13.399Z,981.89
2018-04-13T06:03:13.436Z,981.93
2018-04-13T06:04:13.464Z,981.93
2018-04-13T06:05:13.503Z,981.95
2018-04-13T06:06:13.541Z,981.94
2018-04-13T06:07:13.576Z,981.97
2018-04-13T06:08:13.613Z,981.96
2018-04-13T06:09:13.659Z,981.97
2018-04-13T06:10:13.688Z,981.96
2018-04-13T06:11:13.726Z,982.01
2018-04-13T06:12:13.762Z,982.01
2018-04-13T06:13:13.799Z,981.98
2018-04-13T06:14:13.836Z,982.00
2018-04-13T06:15:13.873Z,982.02
2018-04-13T06:16:13.915Z,982.02
2018-04-13T06:17:13.957Z,982.04
2018-04-13T06:18:13.986Z,981.98
2018-04-13T06:19:14.021Z,981.94
2018-04-13T06:20:14.060Z,981.94
2018-04-13T06:21:14.097Z,981.91
2018-04-13T06:22:14.134Z,981.92
2018-04-13T06:23:14.176Z,981.91
2018-04-13T06:24:14.255Z,981.90
2018-04-13T06:25:14.245Z,981.92
2018-04-13T06:26:14.284Z,981.90
2018-04-13T06:27:14.321Z,981.93
2018-04-13T06:28:14.366Z,981.92
2018-04-13T06:29:14.393Z,981.98
2018-04-13T06:30:14.471Z,981.96
2018-04-13T06:31:14.467Z,981.97
2018-04-13T06:32:14.511Z,981.95
2018-04-13T06:33:14.540Z,981.98
2018-04-13T06:34:14.578Z,982.00
2018-04-13T06:35:14.616Z,981.96
2018-04-13T06:36:14.651Z,981.96
2018-04-13T06:37:14.701Z,981.94
2018-04-13T06:38:14.726Z,981.99
2018-04-13T06:39:14.763Z,981.91
2018-04-13T06:40:14.798Z,981.89
2018-04-13T06:41:14.835Z,981.87
2018-04-13T06:42:14.880Z,981.85
2018-04-13T06:43:14.911Z,981.78
2018-04-13T06:44:14.949Z,981.77
2018-04-13T06:45:14.984Z,981.75
2018-04-13T06:46:15.020Z,981.71
2018-04-13T06:47:15.065Z,981.74
2018-04-13T06:48:15.094Z,981.73
2018-04-13T06:49:15.131Z,981.71
2018-04-13T06:50:15.169Z,981.71
2018-04-13T06:51:15.209Z,981.65
2018-04-13T06:52:15.243Z,981.63
2018-04-13T06:53:15.279Z,981.61
2018-04-13T06:54:15.316Z,981.60
2018-04-13T06:55:15.354Z,981.63
2018-04-13T06:56:15.392Z,981.75
2018-04-13T06:57:15.431Z,981.76
2018-04-13T06:58:15.472Z,981.81
2018-04-13T06:59:15.502Z,981.84
2018-04-13T07:00:15.542Z,981.86
2018-04-13T07:01:15.626Z,981.92
2018-04-13T07:02:15.615Z,981.88
2018-04-13T07:03:15.650Z,981.94
2018-04-13T07:04:15.684Z,981.94
2018-04-13T07:05:15.723Z,981.97
2018-04-13T07:06:15.759Z,981.98
2018-04-13T07:07:15.795Z,981.98
2018-04-13T07:08:15.834Z,982.06
2018-04-13T07:09:15.866Z,982.02
2018-04-13T07:10:15.904Z,982.06
2018-04-13T07:11:15.947Z,982.09
2018-04-13T07:12:16.027Z,982.13
2018-04-13T07:13:16.014Z,982.10
2018-04-13T07:14:16.051Z,982.11
2018-04-13T07:15:16.088Z,982.11
2018-04-13T07:16:16.125Z,982.11
2018-04-13T07:17:16.162Z,982.07
2018-04-13T07:18:16.198Z,982.08
2018-04-13T07:19:16.271Z,982.17
2018-04-13T07:20:16.273Z,982.18
2018-04-13T07:21:16.317Z,982.20
2018-04-13T07:22:16.351Z,982.19
2018-04-13T07:23:16.383Z,982.14
2018-04-13T07:24:16.421Z,982.17
2018-04-13T07:25:16.466Z,982.12
2018-04-13T07:26:16.498Z,982.13
2018-04-13T07:27:16.535Z,982.14
2018-04-13T07:28:16.574Z,982.14
2018-04-13T07:29:16.604Z,982.19
2018-04-13T07:30:16.642Z,982.19
2018-04-13T07:31:16.679Z,982.24
2018-04-13T07:32:16.719Z,982.24
2018-04-13T07:33:16.753Z,982.27
2018-04-13T07:34:16.791Z,982.29
2018-04-13T07:35:16.832Z,982.35
2018-04-13T07:36:17.580Z,982.31
2018-04-13T07:37:16.900Z,982.30
2018-04-13T07:38:16.939Z,982.33
2018-04-13T07:39:16.992Z,982.31
2018-04-13T07:40:17.012Z,982.32
2018-04-13T07:41:17.051Z,982.38
2018-04-13T07:42:17.088Z,982.39
2018-04-13T07:43:17.271Z,982.43
2018-04-13T07:44:17.159Z,982.42
2018-04-13T07:45:17.197Z,982.46
2018-04-13T07:46:17.233Z,982.49
2018-04-13T07:47:17.348Z,982.52
2018-04-13T07:48:18.019Z,982.50
2018-04-13T07:49:17.348Z,982.54
2018-04-13T07:50:17.390Z,982.58
2018-04-13T07:51:17.420Z,982.56
2018-04-13T07:52:17.455Z,982.56
2018-04-13T07:53:17.492Z,982.51
2018-04-13T07:54:17.531Z,982.49
2018-04-13T07:55:17.567Z,982.47
2018-04-13T07:56:17.606Z,982.48
2018-04-13T07:57:17.641Z,982.48
2018-04-13T07:58:17.678Z,982.51
2018-04-13T07:59:17.716Z,982.54
2018-04-13T08:00:18.119Z,982.57
2018-04-13T08:01:17.791Z,982.61
2018-04-13T08:02:17.826Z,982.65
2018-04-13T08:03:17.866Z,982.73
2018-04-13T08:04:17.901Z,982.70
2018-04-13T08:05:17.939Z,982.72
2018-04-13T08:06:17.978Z,982.72
2018-04-13T08:07:18.015Z,982.75
2018-04-13T08:08:18.050Z,982.76
2018-04-13T08:09:18.089Z,982.82
2018-04-13T08:10:18.127Z,982.86
2018-04-13T08:11:18.163Z,982.92
2018-04-13T08:12:18.210Z,982.96
2018-04-13T08:13:18.236Z,982.96
2018-04-13T08:14:18.273Z,983.03
2018-04-13T08:15:18.313Z,983.01
2018-04-13T08:16:18.346Z,983.02
2018-04-13T08:17:18.389Z,983.01
2018-04-13T08:18:18.422Z,982.96
2018-04-13T08:19:18.459Z,982.93
2018-04-13T08:20:18.496Z,982.93
2018-04-13T08:21:18.535Z,982.91
2018-04-13T08:22:18.571Z,982.98
2018-04-13T08:23:18.643Z,983.02
2018-04-13T08:24:18.646Z,983.05
2018-04-13T08:25:18.682Z,983.05
2018-04-13T08:26:18.720Z,983.08
2018-04-13T08:27:18.757Z,983.06
2018-04-13T08:28:18.794Z,983.07
2018-04-13T08:29:18.835Z,983.07
2018-04-13T08:30:18.899Z,983.08
2018-04-13T08:31:18.938Z,983.07
2018-04-13T08:32:18.943Z,983.00
2018-04-13T08:33:18.980Z,983.01
2018-04-13T08:34:19.029Z,982.99
2018-04-13T08:35:19.055Z,982.97
2018-04-13T08:36:19.098Z,982.90
2018-04-13T08:37:19.140Z,982.91
2018-04-13T08:38:19.169Z,982.85
2018-04-13T08:39:19.205Z,982.86
2018-04-13T08:40:19.241Z,982.78
2018-04-13T08:41:19.279Z,982.83
2018-04-13T08:42:19.316Z,982.77
2018-04-13T08:43:19.463Z,982.80
2018-04-13T08:44:19.408Z,982.79
2018-04-13T08:45:19.428Z,982.84
2018-04-13T08:46:19.471Z,982.86
2018-04-13T08:47:19.508Z,982.82
2018-04-13T08:48:19.539Z,982.90
2018-04-13T08:49:19.577Z,982.92
2018-04-13T08:50:19.619Z,982.95
2018-04-13T08:51:19.652Z,982.92
2018-04-13T08:52:19.698Z,982.94
2018-04-13T08:53:19.732Z,982.93
2018-04-13T08:54:19.762Z,982.95
2018-04-13T08:55:19.799Z,982.94
2018-04-13T08:56:19.844Z,982.89
2018-04-13T08:57:19.877Z,982.87
2018-04-13T08:58:19.913Z,982.81
2018-04-13T08:59:19.947Z,982.78
2018-04-13T09:00:19.984Z,982.76
2018-04-13T09:01:20.021Z,982.75
2018-04-13T09:02:20.069Z,982.75
2018-04-13T09:03:20.097Z,982.69
2018-04-13T09:04:20.132Z,982.78
2018-04-13T09:05:20.168Z,982.78
2018-04-13T09:06:20.235Z,982.75
2018-04-13T09:07:20.273Z,982.77
2018-04-13T09:08:20.303Z,982.80
2018-04-13T09:09:20.317Z,982.88
2018-04-13T09:10:20.355Z,982.91
2018-04-13T09:11:20.391Z,982.95
2018-04-13T09:12:20.437Z,982.97
2018-04-13T09:13:20.467Z,982.97
2018-04-13T09:14:20.502Z,982.96
2018-04-13T09:15:20.539Z,983.02
2018-04-13T09:16:20.575Z,983.03
2018-04-13T09:17:20.613Z,983.03
2018-04-13T09:18:20.650Z,983.09
2018-04-13T09:19:20.698Z,983.06
2018-04-13T09:20:20.721Z,983.06
2018-04-13T09:21:20.764Z,983.11
2018-04-13T09:22:20.797Z,983.22
2018-04-13T09:23:20.833Z,983.21
2018-04-13T09:24:20.869Z,983.24
2018-04-13T09:25:20.918Z,983.21
2018-04-13T09:26:20.943Z,983.23
2018-04-13T09:27:20.981Z,983.21
2018-04-13T09:28:21.018Z,983.20
2018-04-13T09:29:21.054Z,983.22
2018-04-13T09:30:21.091Z,983.18
2018-04-13T09:31:21.130Z,983.18
2018-04-13T09:32:21.165Z,983.25
2018-04-13T09:33:21.201Z,983.21
2018-04-13T09:34:21.243Z,983.23
2018-04-13T09:35:21.275Z,983.24
2018-04-13T09:36:21.312Z,983.27
2018-04-13T09:37:21.350Z,983.24
2018-04-13T09:38:21.386Z,983.26
2018-04-13T09:39:21.432Z,983.28
2018-04-13T09:40:21.458Z,983.26
2018-04-13T09:41:21.497Z,983.31
2018-04-13T09:42:21.544Z,983.35
2018-04-13T09:43:21.580Z,983.34
2018-04-13T09:44:21.627Z,983.36
2018-04-13T09:45:21.655Z,983.38
2018-04-13T09:46:21.683Z,983.38
2018-04-13T09:47:21.718Z,983.43
2018-04-13T09:48:21.754Z,983.43
2018-04-13T09:49:21.796Z,983.41
2018-04-13T09:50:21.830Z,983.37
2018-04-13T09:51:21.866Z,983.41
2018-04-13T09:52:21.901Z,983.41
2018-04-13T09:53:21.939Z,983.38
2018-04-13T09:54:21.980Z,983.32
2018-04-13T09:55:22.017Z,983.33
2018-04-13T09:56:22.055Z,983.33
2018-04-13T09:57:22.088Z,983.27
2018-04-13T09:58:22.124Z,983.31
2018-04-13T09:59:22.161Z,983.32
2018-04-13T10:00:22.198Z,983.29
2018-04-13T10:01:22.238Z,983.34
2018-04-13T10:02:22.280Z,983.38
2018-04-13T10:03:22.310Z,983.35
2018-04-13T10:04:22.345Z,983.40
2018-04-13T10:05:22.382Z,983.40
2018-04-13T10:06:22.418Z,983.38
2018-04-13T10:07:22.460Z,983.39
2018-04-13T10:08:22.495Z,983.41
2018-04-13T10:09:22.531Z,983.39
2018-04-13T10:10:22.578Z,983.38
2018-04-13T10:11:22.604Z,983.44
2018-04-13T10:12:22.641Z,983.39
2018-04-13T10:13:22.687Z,983.45
2018-04-13T10:14:22.715Z,983.38
2018-04-13T10:15:22.753Z,983.40
2018-04-13T10:16:22.788Z,983.43
2018-04-13T10:17:22.834Z,983.42
2018-04-13T10:18:22.874Z,983.36
2018-04-13T10:19:22.902Z,983.38
2018-04-13T10:20:22.939Z,983.42
2018-04-13T10:21:22.976Z,983.41
2018-04-13T10:22:23.022Z,983.41
2018-04-13T10:23:23.050Z,983.37
2018-04-13T10:24:23.087Z,983.40
2018-04-13T10:25:23.131Z,983.34
2018-04-13T10:26:23.164Z,983.34
2018-04-13T10:27:23.200Z,983.36
2018-04-13T10:28:23.239Z,983.31
2018-04-13T10:29:23.276Z,983.37
2018-04-13T10:30:23.316Z,983.38
2018-04-13T10:31:23.351Z,983.40
2018-04-13T10:32:23.390Z,983.46
2018-04-13T10:33:23.427Z,983.44
2018-04-13T10:34:23.467Z,983.49
2018-04-13T10:35:23.514Z,983.44
2018-04-13T10:36:23.541Z,983.38
2018-04-13T10:37:23.581Z,983.39
2018-04-13T10:38:23.619Z,983.34
2018-04-13T10:39:23.654Z,983.30
2018-04-13T10:40:23.692Z,983.28
2018-04-13T10:41:23.730Z,983.30
2018-04-13T10:42:23.776Z,983.33
2018-04-13T10:43:23.807Z,983.32
2018-04-13T10:44:23.846Z,983.23
2018-04-13T10:45:23.882Z,983.35
2018-04-13T10:46:23.920Z,983.25
2018-04-13T10:47:23.959Z,983.25
2018-04-13T10:48:23.997Z,983.30
2018-04-13T10:49:24.078Z,983.30
2018-04-13T10:50:24.073Z,983.27
2018-04-13T10:51:24.112Z,983.26
2018-04-13T10:52:24.147Z,983.20
2018-04-13T10:53:24.189Z,983.20
2018-04-13T10:54:24.225Z,983.18
2018-04-13T10:55:24.260Z,983.16
2018-04-13T10:56:24.300Z,983.14
2018-04-13T10:57:24.343Z,983.15
2018-04-13T10:58:24.382Z,983.20
2018-04-13T10:59:24.417Z,983.12
2018-04-13T11:00:24.450Z,983.14
2018-04-13T11:01:24.485Z,983.25
2018-04-13T11:02:24.524Z,983.22
2018-04-13T11:03:24.569Z,983.23
2018-04-13T11:04:24.599Z,983.22
2018-04-13T11:05:24.636Z,983.24
2018-04-13T11:06:24.676Z,983.26
2018-04-13T11:07:24.713Z,983.22
2018-04-13T11:08:24.749Z,983.22
2018-04-13T11:09:24.791Z,983.20
2018-04-13T11:10:24.823Z,983.19
2018-04-13T11:11:24.861Z,983.21
2018-04-13T11:12:24.896Z,983.19
2018-04-13T11:13:24.936Z,983.18
2018-04-13T11:14:24.973Z,983.21
2018-04-13T11:15:25.011Z,983.22
2018-04-13T11:16:25.050Z,983.22
2018-04-13T11:17:25.141Z,983.24
2018-04-13T11:18:25.131Z,983.24
2018-04-13T11:19:25.160Z,983.28
2018-04-13T11:20:25.205Z,983.28
2018-04-13T11:21:25.236Z,983.30
2018-04-13T11:22:25.271Z,983.31
2018-04-13T11:23:25.310Z,983.32
2018-04-13T11:24:25.345Z,983.34
2018-04-13T11:25:25.386Z,983.37
2018-04-13T11:26:25.428Z,983.33
2018-04-13T11:27:25.457Z,983.38
2018-04-13T11:28:25.494Z,983.39
2018-04-13T11:29:25.536Z,983.39
2018-04-13T11:30:25.630Z,983.46
2018-04-13T11:31:25.606Z,983.45
2018-04-13T11:32:25.650Z,983.45
2018-04-13T11:33:25.682Z,983.38
2018-04-13T11:34:25.726Z,983.43
2018-04-13T11:35:25.755Z,983.50
2018-04-13T11:36:25.792Z,983.42
2018-04-13T11:37:25.830Z,983.47
2018-04-13T11:38:25.879Z,983.46
2018-04-13T11:39:25.905Z,983.44
2018-04-13T11:40:25.940Z,983.44
2018-04-13T11:41:25.979Z,983.46
2018-04-13T11:42:26.015Z,983.47
2018-04-13T11:43:26.056Z,983.47
2018-04-13T11:44:26.112Z,983.46
2018-04-13T11:45:26.128Z,983.47
2018-04-13T11:46:26.174Z,983.47
2018-04-13T11:47:26.200Z,983.49
2018-04-13T11:48:26.237Z,983.47
2018-04-13T11:49:26.277Z,983.51
2018-04-13T11:50:26.313Z,983.50
2018-04-13T11:51:26.348Z,983.50
2018-04-13T11:52:26.387Z,983.48
2018-04-13T11:53:26.424Z,983.54
2018-04-13T11:54:26.468Z,983.52
2018-04-13T11:55:26.496Z,983.50
2018-04-13T11:56:26.535Z,983.52
2018-04-13T11:57:26.570Z,983.51
2018-04-13T11:58:26.607Z,983.56
2018-04-13T11:59:26.647Z,983.58
2018-04-13T12:00:26.680Z,983.60
2018-04-13T12:01:26.721Z,983.58
2018-04-13T12:02:26.786Z,983.53
2018-04-13T12:03:26.892Z,983.48
2018-04-13T12:04:26.826Z,983.49
2018-04-13T12:05:26.865Z,983.45
2018-04-13T12:06:26.901Z,983.42
2018-04-13T12:07:26.939Z,983.42
2018-04-13T12:08:26.977Z,983.44
2018-04-13T12:09:27.012Z,983.37
2018-04-13T12:10:27.048Z,983.40
2018-04-13T12:11:27.090Z,983.37
2018-04-13T12:12:27.126Z,983.44
2018-04-13T12:13:27.158Z,983.41
2018-04-13T12:14:27.196Z,983.49
2018-04-13T12:15:27.232Z,983.47
2018-04-13T12:16:27.270Z,983.50
2018-04-13T12:17:27.306Z,983.48
2018-04-13T12:18:27.343Z,983.52
2018-04-13T12:19:27.379Z,983.48
2018-04-13T12:20:27.417Z,983.49
2018-04-13T12:21:27.452Z,983.54
2018-04-13T12:22:27.489Z,983.54
2018-04-13T12:23:27.527Z,983.55
2018-04-13T12:24:27.563Z,983.50
2018-04-13T12:25:27.648Z,983.55
2018-04-13T12:26:27.838Z,983.57
2018-04-13T12:27:27.673Z,983.53
2018-04-13T12:28:27.709Z,983.54
2018-04-13T12:29:27.746Z,983.55